createdAt,value
2022-10-06T00:01:44.470Z,1.97
2022-10-06T00:04:31.391Z,2.40
2022-10-06T00:07:18.291Z,2.10
2022-10-06T00:10:05.203Z,1.90
2022-10-06T00:13:06.070Z,1.90
2022-10-06T00:15:53.636Z,1.97
2022-10-06T00:18:40.563Z,1.87
2022-10-06T00:21:27.733Z,1.83
2022-10-06T00:24:14.665Z,1.50
2022-10-06T00:27:01.863Z,1.60
2022-10-06T00:29:48.797Z,1.30
2022-10-06T00:32:35.921Z,1.37
2022-10-06T00:35:22.983Z,1.30
2022-10-06T00:38:10.124Z,1.47
2022-10-06T00:41:04.353Z,1.20
2022-10-06T00:44:02.770Z,1.17
2022-10-06T00:47:05.668Z,1.33
2022-10-06T00:49:56.866Z,1.40
2022-10-06T00:52:47.486Z,1.40
2022-10-06T00:55:35.029Z,1.20
2022-10-06T00:58:22.765Z,1.37
2022-10-06T01:01:15.132Z,1.50
2022-10-06T01:04:07.037Z,1.33
2022-10-06T01:07:02.489Z,1.67
2022-10-06T01:09:51.166Z,1.47
2022-10-06T01:12:39.625Z,1.33
2022-10-06T01:15:27.473Z,1.67
2022-10-06T01:18:14.871Z,1.40
2022-10-06T01:21:10.343Z,1.30
2022-10-06T01:23:59.696Z,1.67
2022-10-06T01:26:48.567Z,1.33
2022-10-06T01:29:36.272Z,1.53
2022-10-06T01:32:23.700Z,1.30
2022-10-06T01:35:10.754Z,1.27
2022-10-06T01:37:59.008Z,1.10
2022-10-06T01:40:47.473Z,1.10
2022-10-06T01:43:34.446Z,0.80
2022-10-06T01:46:21.699Z,1.00
2022-10-06T01:49:10.840Z,0.80
2022-10-06T01:51:57.894Z,1.10
2022-10-06T01:54:44.912Z,0.80
2022-10-06T01:57:31.924Z,1.00
2022-10-06T02:00:18.783Z,0.87
2022-10-06T02:03:07.316Z,0.77
2022-10-06T02:05:55.199Z,0.83
2022-10-06T02:08:42.948Z,0.80
2022-10-06T02:11:31.906Z,1.20
2022-10-06T02:14:19.162Z,0.80
2022-10-06T02:17:07.372Z,0.60
2022-10-06T02:19:54.336Z,0.40
2022-10-06T02:22:41.431Z,0.20
2022-10-06T02:25:28.661Z,0.30
2022-10-06T02:28:16.047Z,0.10
2022-10-06T02:31:03.249Z,0.10
2022-10-06T02:33:50.583Z,0.23
2022-10-06T02:36:39.200Z,0.10
2022-10-06T02:39:26.234Z,0.20
2022-10-06T02:42:13.232Z,0.10
2022-10-06T02:45:00.295Z,0.10
2022-10-06T02:47:47.297Z,0.10
2022-10-06T02:50:35.170Z,0.20
2022-10-06T02:53:22.323Z,0.10
2022-10-06T02:56:09.647Z,0.10
2022-10-06T02:58:57.255Z,0.00
2022-10-06T03:01:50.604Z,0.10
2022-10-06T03:04:39.005Z,0.10
2022-10-06T03:07:25.979Z,0.20
2022-10-06T03:10:12.970Z,0.10
2022-10-06T03:13:00.098Z,0.13
2022-10-06T03:15:48.595Z,0.10
2022-10-06T03:18:35.625Z,0.10
2022-10-06T03:21:22.740Z,0.10
2022-10-06T03:24:11.283Z,0.07
2022-10-06T03:27:01.004Z,0.10
2022-10-06T03:29:48.836Z,0.10
2022-10-06T03:32:36.152Z,0.10
2022-10-06T03:35:23.213Z,0.20
2022-10-06T03:38:10.211Z,0.10
2022-10-06T03:40:57.363Z,0.10
2022-10-06T03:43:44.571Z,0.10
2022-10-06T03:46:33.726Z,0.13
2022-10-06T03:49:23.291Z,0.10
2022-10-06T03:52:10.150Z,0.20
2022-10-06T03:54:58.363Z,0.10
2022-10-06T03:57:45.311Z,0.10
2022-10-06T04:00:33.490Z,0.20
2022-10-06T04:03:20.436Z,0.20
2022-10-06T04:06:18.697Z,0.17
2022-10-06T04:09:12.508Z,0.10
2022-10-06T04:12:03.564Z,0.10
2022-10-06T04:14:55.319Z,0.17
2022-10-06T04:17:45.068Z,0.10
2022-10-06T04:20:32.110Z,0.20
2022-10-06T04:23:19.327Z,0.00
2022-10-06T04:26:06.293Z,0.20
2022-10-06T04:28:53.504Z,0.00
2022-10-06T04:31:45.361Z,0.07
2022-10-06T04:34:38.779Z,0.10
2022-10-06T04:37:25.884Z,0.20
2022-10-06T04:40:13.379Z,0.10
2022-10-06T04:43:00.641Z,0.10
2022-10-06T04:45:47.836Z,0.10
2022-10-06T04:48:34.913Z,0.20
2022-10-06T04:51:31.735Z,0.30
2022-10-06T04:54:20.229Z,0.10
2022-10-06T04:57:10.836Z,0.10
2022-10-06T05:00:03.021Z,0.20
2022-10-06T05:02:53.624Z,0.00
2022-10-06T05:05:40.571Z,0.10
2022-10-06T05:08:28.097Z,0.10
2022-10-06T05:11:26.483Z,0.10
2022-10-06T05:14:16.330Z,0.30
2022-10-06T05:17:06.181Z,0.13
2022-10-06T05:19:54.504Z,0.10
2022-10-06T05:22:41.393Z,0.13
2022-10-06T05:25:28.729Z,0.10
2022-10-06T05:28:15.724Z,0.17
2022-10-06T05:31:02.648Z,0.30
2022-10-06T05:33:52.336Z,0.10
2022-10-06T05:36:42.184Z,0.20
2022-10-06T05:39:31.334Z,0.20
2022-10-06T05:42:18.850Z,0.17
2022-10-06T05:45:06.425Z,0.10
2022-10-06T05:47:53.433Z,0.30
2022-10-06T05:50:40.409Z,0.10
2022-10-06T05:53:27.400Z,0.20
2022-10-06T05:56:12.981Z,0.20
2022-10-06T05:58:45.885Z,0.20
2022-10-06T06:01:17.368Z,0.10
2022-10-06T06:04:14.829Z,0.10
2022-10-06T06:07:13.253Z,0.10
2022-10-06T06:10:02.698Z,0.20
2022-10-06T06:12:49.883Z,0.10
2022-10-06T06:15:52.079Z,0.13
2022-10-06T06:18:39.092Z,0.10
2022-10-06T06:21:29.850Z,0.10
2022-10-06T06:24:17.694Z,0.43
2022-10-06T06:27:04.735Z,0.20
2022-10-06T06:29:51.696Z,0.20
2022-10-06T06:32:38.680Z,0.20
2022-10-06T06:35:26.973Z,0.30
2022-10-06T06:38:14.085Z,0.30
2022-10-06T06:41:01.223Z,0.20
2022-10-06T06:43:48.731Z,0.30
2022-10-06T06:47:11.284Z,0.20
2022-10-06T12:44:03.993Z,0.10
2022-10-06T12:47:03.676Z,0.10
2022-10-06T12:50:00.381Z,0.17
2022-10-06T12:53:05.636Z,0.10
2022-10-06T12:55:58.320Z,0.10
2022-10-06T12:58:50.853Z,0.10
2022-10-06T13:01:38.313Z,0.10
2022-10-06T13:04:25.625Z,0.00
2022-10-06T13:07:12.869Z,0.10
2022-10-06T13:10:00.971Z,0.17
2022-10-06T13:12:57.112Z,0.00
2022-10-06T13:15:52.209Z,0.10
2022-10-06T13:18:42.521Z,0.20
2022-10-06T13:21:34.137Z,0.20
2022-10-06T13:24:21.092Z,0.13
2022-10-06T13:27:08.348Z,0.13
2022-10-06T13:29:55.975Z,0.17
2022-10-06T13:32:45.840Z,0.10
2022-10-06T13:35:33.152Z,0.00
2022-10-06T13:38:20.046Z,0.10
2022-10-06T13:41:23.647Z,0.10
2022-10-06T13:44:18.363Z,0.07
2022-10-06T13:47:11.985Z,0.10
2022-10-06T13:50:27.774Z,0.00
2022-10-06T13:53:14.678Z,0.00
2022-10-06T13:56:09.437Z,0.10
2022-10-06T13:58:56.533Z,0.03
2022-10-06T14:01:51.217Z,0.10
2022-10-06T14:04:39.659Z,0.20
2022-10-06T14:07:33.548Z,0.00
2022-10-06T14:10:20.789Z,0.00
2022-10-06T14:13:08.095Z,0.10
2022-10-06T14:16:13.253Z,0.10
2022-10-06T14:19:12.312Z,0.10
2022-10-06T14:22:04.140Z,0.00
2022-10-06T14:24:51.430Z,0.07
2022-10-06T14:27:38.389Z,0.10
2022-10-06T14:30:25.777Z,0.17
2022-10-06T14:33:12.810Z,0.00
2022-10-06T14:35:59.616Z,0.10
2022-10-06T14:38:46.623Z,0.10
2022-10-06T14:41:34.577Z,0.00
2022-10-06T14:44:24.521Z,0.27
2022-10-06T14:47:11.944Z,0.07
2022-10-06T14:49:59.582Z,0.10
2022-10-06T14:52:46.557Z,0.10
2022-10-06T14:55:33.643Z,0.10
2022-10-06T14:58:20.544Z,0.20
2022-10-06T15:01:07.456Z,0.10
2022-10-06T15:03:57.244Z,0.10
2022-10-06T15:06:43.100Z,0.13
2022-10-06T15:09:31.350Z,0.13
2022-10-06T15:12:19.188Z,0.10
2022-10-06T15:15:06.045Z,0.00
2022-10-06T15:17:53.256Z,0.10
2022-10-06T15:20:40.232Z,0.20
2022-10-06T15:23:27.282Z,0.10
2022-10-06T15:26:12.921Z,0.10
2022-10-06T15:28:58.556Z,0.00
2022-10-06T15:31:46.759Z,0.10
2022-10-06T15:34:34.745Z,0.20
2022-10-06T15:37:22.024Z,0.03
2022-10-06T15:40:08.977Z,0.10
2022-10-06T15:42:55.792Z,0.30
2022-10-06T15:45:42.658Z,0.10
2022-10-06T15:48:29.632Z,0.10
2022-10-06T15:51:16.460Z,0.20
2022-10-06T15:54:03.427Z,0.23
2022-10-06T15:56:53.615Z,0.20
2022-10-06T15:59:41.960Z,0.30
2022-10-06T16:02:36.537Z,0.17
2022-10-06T16:05:06.618Z,0.30
2022-10-06T16:07:53.520Z,0.20
2022-10-06T16:10:40.469Z,0.10
2022-10-06T16:13:27.427Z,0.10
2022-10-06T16:16:15.228Z,0.20
2022-10-06T16:19:02.362Z,0.30
2022-10-06T16:21:51.932Z,0.30
2022-10-06T16:24:41.808Z,0.10
2022-10-06T16:27:33.701Z,0.10
2022-10-06T16:30:20.759Z,0.10
2022-10-06T16:33:07.765Z,0.00
2022-10-06T16:35:54.705Z,0.40
2022-10-06T16:38:41.759Z,0.20
2022-10-06T16:41:29.716Z,0.20
2022-10-06T16:44:16.779Z,0.20
2022-10-06T16:47:04.177Z,0.10
2022-10-06T16:49:51.356Z,0.30
2022-10-06T16:52:38.450Z,0.23
2022-10-06T16:55:25.720Z,0.20
2022-10-06T16:58:12.689Z,0.23
2022-10-06T17:00:59.509Z,0.20
2022-10-06T17:03:46.616Z,0.40
2022-10-06T17:06:38.368Z,0.27
2022-10-06T17:09:33.575Z,0.23
2022-10-06T17:12:22.337Z,0.10
2022-10-06T17:15:09.243Z,0.20
2022-10-06T17:17:56.252Z,0.20
2022-10-06T17:20:43.324Z,0.23
2022-10-06T17:23:30.453Z,0.20
2022-10-06T17:26:35.259Z,0.20
2022-10-06T17:29:26.576Z,0.30
2022-10-06T17:32:13.752Z,0.70
2022-10-06T17:35:00.711Z,0.70
2022-10-06T17:37:47.520Z,0.50
2022-10-06T17:40:34.731Z,0.50
2022-10-06T17:43:21.626Z,0.20
2022-10-06T17:46:08.779Z,0.27
2022-10-06T17:48:55.644Z,0.60
2022-10-06T17:51:45.355Z,0.57
2022-10-06T17:54:33.928Z,0.93
2022-10-06T17:57:21.056Z,0.30
2022-10-06T18:00:08.012Z,0.80
2022-10-06T18:02:58.732Z,0.40
2022-10-06T18:05:46.577Z,0.30
2022-10-06T18:08:33.704Z,0.60
2022-10-06T18:11:19.531Z,0.27
2022-10-06T18:14:07.629Z,0.40
2022-10-06T18:17:03.050Z,0.20
2022-10-06T18:19:52.193Z,0.40
2022-10-06T18:22:39.593Z,0.30
2022-10-06T18:25:27.165Z,0.47
2022-10-06T18:28:14.034Z,0.40
2022-10-06T18:31:01.460Z,0.47
2022-10-06T18:36:55.386Z,0.40
2022-10-06T18:39:42.378Z,1.43
2022-10-06T18:42:29.422Z,1.53
2022-10-06T18:45:14.759Z,0.50
2022-10-06T18:47:59.987Z,0.43
2022-10-06T18:50:46.998Z,0.10
2022-10-06T18:53:33.848Z,0.10
2022-10-06T18:56:20.807Z,0.20
2022-10-06T18:59:07.951Z,0.10
2022-10-06T19:01:55.314Z,0.67
2022-10-06T19:04:43.328Z,0.20
2022-10-06T19:07:30.276Z,0.20
2022-10-06T19:10:17.269Z,0.10
2022-10-06T19:13:04.244Z,0.10
2022-10-06T19:15:51.295Z,0.07
2022-10-06T19:18:38.192Z,0.20
2022-10-06T19:21:25.475Z,0.20
2022-10-06T19:24:12.339Z,0.10
2022-10-06T19:27:00.387Z,0.10
2022-10-06T19:29:48.033Z,0.20
2022-10-06T19:32:38.141Z,0.10
2022-10-06T19:35:25.229Z,0.10
2022-10-06T19:38:12.268Z,0.10
2022-10-06T19:40:59.175Z,0.20
2022-10-06T19:43:46.020Z,0.10
2022-10-06T19:46:32.856Z,0.20
2022-10-06T19:49:19.799Z,0.30
2022-10-06T19:52:06.748Z,0.03
2022-10-06T19:54:54.804Z,0.10
2022-10-06T19:57:42.602Z,0.20
2022-10-06T20:00:30.347Z,0.20
2022-10-06T20:03:17.200Z,0.20
2022-10-06T20:06:04.299Z,0.00
2022-10-06T20:08:51.160Z,0.10
2022-10-06T20:11:42.560Z,0.10
2022-10-06T20:14:35.440Z,0.10
2022-10-06T20:17:22.495Z,0.20
2022-10-06T20:20:09.330Z,0.20
2022-10-06T20:22:56.252Z,0.20
2022-10-06T20:25:43.047Z,0.30
2022-10-06T20:28:30.087Z,0.40
2022-10-06T20:31:17.057Z,0.10
2022-10-06T20:34:04.109Z,0.10
2022-10-06T20:36:55.849Z,0.10
2022-10-06T20:39:42.555Z,0.10
2022-10-06T20:42:30.224Z,0.10
2022-10-06T20:45:17.028Z,0.20
2022-10-06T20:48:03.844Z,0.20
2022-10-06T20:50:51.233Z,0.13
2022-10-06T20:53:38.123Z,0.10
2022-10-06T20:56:26.582Z,0.40
2022-10-06T20:59:14.120Z,0.30
2022-10-06T21:02:01.193Z,0.20
2022-10-06T21:04:48.647Z,0.10
2022-10-06T21:07:36.122Z,0.10
2022-10-06T21:10:23.126Z,0.20
2022-10-06T21:13:10.334Z,0.10
2022-10-06T21:15:45.159Z,0.10
2022-10-06T21:18:12.347Z,0.03
2022-10-06T21:20:44.407Z,0.10
2022-10-06T21:23:13.382Z,0.10
2022-10-06T21:25:40.265Z,0.30
2022-10-06T21:28:07.391Z,0.10
2022-10-06T21:30:36.245Z,0.10
2022-10-06T21:33:03.638Z,0.10
2022-10-06T21:35:30.659Z,0.20
2022-10-06T21:37:57.582Z,0.00
2022-10-06T21:40:24.424Z,0.00
2022-10-06T21:42:51.374Z,0.13
2022-10-06T21:45:20.973Z,0.07
2022-10-06T21:47:50.118Z,0.10
2022-10-06T21:50:17.077Z,0.20
2022-10-06T21:52:44.851Z,0.00
2022-10-06T21:55:11.751Z,0.00
2022-10-06T21:57:38.980Z,0.00
2022-10-06T22:00:11.101Z,0.10
2022-10-06T22:02:39.800Z,0.00
2022-10-06T22:05:06.919Z,0.10
2022-10-06T22:07:33.849Z,0.10
2022-10-06T22:10:00.802Z,0.10
2022-10-06T22:12:27.619Z,0.10
2022-10-06T22:14:58.806Z,0.20
2022-10-06T22:17:26.699Z,0.10
2022-10-06T22:19:53.646Z,0.30
2022-10-06T22:22:20.598Z,0.20
2022-10-06T22:24:47.554Z,0.07
2022-10-06T22:27:14.491Z,0.00
2022-10-06T22:29:42.611Z,0.10
2022-10-06T22:32:09.718Z,0.23
2022-10-06T22:34:36.887Z,0.20
2022-10-06T22:37:04.144Z,0.20
2022-10-06T22:39:31.030Z,0.20
2022-10-06T22:41:57.898Z,0.10
2022-10-06T22:44:24.761Z,0.10
2022-10-06T22:46:51.732Z,0.10
2022-10-06T22:49:19.439Z,0.10
2022-10-06T22:51:46.308Z,0.00
2022-10-06T22:54:17.690Z,0.20
2022-10-06T22:56:45.050Z,0.10
2022-10-06T22:59:12.034Z,0.10
2022-10-06T23:01:38.995Z,0.20
2022-10-06T23:04:05.878Z,0.10
2022-10-06T23:06:33.679Z,0.33
2022-10-06T23:09:02.178Z,0.10
2022-10-06T23:11:29.151Z,0.27
2022-10-06T23:13:56.154Z,0.20
2022-10-06T23:16:23.557Z,0.20
2022-10-06T23:18:50.829Z,0.10
2022-10-06T23:21:22.917Z,0.10
2022-10-06T23:23:52.464Z,0.30
2022-10-06T23:26:20.224Z,0.17
2022-10-06T23:28:55.774Z,0.20
2022-10-06T23:31:22.818Z,0.20
2022-10-06T23:33:49.782Z,0.10
2022-10-06T23:36:17.959Z,0.20
2022-10-06T23:38:45.490Z,0.20
2022-10-06T23:41:13.280Z,0.30
2022-10-06T23:43:40.624Z,0.20
2022-10-06T23:46:07.998Z,0.10
2022-10-06T23:48:35.095Z,0.20
2022-10-06T23:51:14.200Z,0.00
2022-10-06T23:53:41.873Z,0.17
2022-10-06T23:56:09.046Z,0.20
2022-10-06T23:58:36.178Z,0.20
